sensor_id;sensor_type;location;lat;lon;timestamp;P1;durP1;ratioP1;P2;durP2;ratioP2
13040;SDS011;6587;42.728;23.288;2023-04-10T00:00:24;11.00;;;6.97;;
13040;SDS011;6587;42.728;23.288;2023-04-10T00:02:51;10.40;;;6.93;;
13040;SDS011;6587;42.728;23.288;2023-04-10T00:05:19;12.20;;;8.17;;
13040;SDS011;6587;42.728;23.288;2023-04-10T00:07:46;11.30;;;7.57;;
13040;SDS011;6587;42.728;23.288;2023-04-10T00:10:12;10.73;;;7.17;;
13040;SDS011;6587;42.728;23.288;2023-04-10T00:12:39;11.63;;;7.63;;
13040;SDS011;6587;42.728;23.288;2023-04-10T00:15:06;12.60;;;8.10;;
13040;SDS011;6587;42.728;23.288;2023-04-10T00:17:33;11.63;;;7.90;;
13040;SDS011;6587;42.728;23.288;2023-04-10T00:20:00;13.47;;;9.40;;
13040;SDS011;6587;42.728;23.288;2023-04-10T00:22:28;12.57;;;8.27;;
13040;SDS011;6587;42.728;23.288;2023-04-10T00:24:54;16.43;;;9.77;;
13040;SDS011;6587;42.728;23.288;2023-04-10T00:27:21;16.23;;;9.60;;
13040;SDS011;6587;42.728;23.288;2023-04-10T00:29:48;15.83;;;9.47;;
13040;SDS011;6587;42.728;23.288;2023-04-10T00:32:14;13.83;;;9.10;;
13040;SDS011;6587;42.728;23.288;2023-04-10T00:34:41;14.10;;;8.77;;
13040;SDS011;6587;42.728;23.288;2023-04-10T00:37:08;13.27;;;8.80;;
13040;SDS011;6587;42.728;23.288;2023-04-10T00:39:36;12.37;;;8.53;;
13040;SDS011;6587;42.728;23.288;2023-04-10T00:42:03;14.27;;;8.67;;
13040;SDS011;6587;42.728;23.288;2023-04-10T00:44:33;13.63;;;8.57;;
13040;SDS011;6587;42.728;23.288;2023-04-10T00:47:01;11.63;;;7.57;;
13040;SDS011;6587;42.728;23.288;2023-04-10T00:49:28;14.87;;;8.87;;
13040;SDS011;6587;42.728;23.288;2023-04-10T00:51:55;13.33;;;8.17;;
13040;SDS011;6587;42.728;23.288;2023-04-10T00:54:23;12.83;;;7.87;;
13040;SDS011;6587;42.728;23.288;2023-04-10T00:56:52;12.97;;;8.40;;
13040;SDS011;6587;42.728;23.288;2023-04-10T00:59:21;14.30;;;8.53;;
13040;SDS011;6587;42.728;23.288;2023-04-10T01:01:47;12.80;;;8.40;;
13040;SDS011;6587;42.728;23.288;2023-04-10T01:04:14;13.93;;;8.93;;
13040;SDS011;6587;42.728;23.288;2023-04-10T01:06:46;13.17;;;8.27;;
13040;SDS011;6587;42.728;23.288;2023-04-10T01:09:16;12.80;;;8.83;;
13040;SDS011;6587;42.728;23.288;2023-04-10T01:11:47;10.87;;;7.87;;
13040;SDS011;6587;42.728;23.288;2023-04-10T01:14:22;13.00;;;7.97;;
13040;SDS011;6587;42.728;23.288;2023-04-10T01:16:52;10.07;;;7.10;;
13040;SDS011;6587;42.728;23.288;2023-04-10T01:19:24;11.40;;;7.77;;
13040;SDS011;6587;42.728;23.288;2023-04-10T01:21:52;12.40;;;8.03;;
13040;SDS011;6587;42.728;23.288;2023-04-10T01:24:20;11.03;;;7.10;;
13040;SDS011;6587;42.728;23.288;2023-04-10T01:27:03;12.60;;;8.10;;
13040;SDS011;6587;42.728;23.288;2023-04-10T01:29:35;12.03;;;7.47;;
13040;SDS011;6587;42.728;23.288;2023-04-10T01:32:02;12.17;;;7.73;;
13040;SDS011;6587;42.728;23.288;2023-04-10T01:34:31;10.40;;;7.00;;
13040;SDS011;6587;42.728;23.288;2023-04-10T01:36:58;12.57;;;7.97;;
13040;SDS011;6587;42.728;23.288;2023-04-10T01:39:26;14.13;;;8.60;;
13040;SDS011;6587;42.728;23.288;2023-04-10T01:41:54;13.77;;;8.27;;
13040;SDS011;6587;42.728;23.288;2023-04-10T01:44:37;14.37;;;8.47;;
13040;SDS011;6587;42.728;23.288;2023-04-10T01:47:06;14.37;;;8.20;;
13040;SDS011;6587;42.728;23.288;2023-04-10T01:49:33;12.87;;;8.20;;
13040;SDS011;6587;42.728;23.288;2023-04-10T01:52:01;14.23;;;8.90;;
13040;SDS011;6587;42.728;23.288;2023-04-10T01:54:29;15.27;;;8.50;;
13040;SDS011;6587;42.728;23.288;2023-04-10T01:56:57;13.30;;;8.73;;
13040;SDS011;6587;42.728;23.288;2023-04-10T01:59:25;14.17;;;8.80;;
13040;SDS011;6587;42.728;23.288;2023-04-10T02:01:56;15.97;;;9.23;;
13040;SDS011;6587;42.728;23.288;2023-04-10T02:04:22;16.33;;;9.53;;
13040;SDS011;6587;42.728;23.288;2023-04-10T02:06:56;16.40;;;10.43;;
13040;SDS011;6587;42.728;23.288;2023-04-10T02:09:30;16.73;;;10.57;;
13040;SDS011;6587;42.728;23.288;2023-04-10T02:12:02;15.00;;;10.37;;
13040;SDS011;6587;42.728;23.288;2023-04-10T02:14:30;15.93;;;9.50;;
13040;SDS011;6587;42.728;23.288;2023-04-10T02:16:58;18.43;;;10.57;;
13040;SDS011;6587;42.728;23.288;2023-04-10T02:19:26;15.13;;;9.63;;
13040;SDS011;6587;42.728;23.288;2023-04-10T02:21:54;16.57;;;10.00;;
13040;SDS011;6587;42.728;23.288;2023-04-10T02:24:21;17.87;;;10.03;;
13040;SDS011;6587;42.728;23.288;2023-04-10T02:26:48;15.20;;;9.93;;
13040;SDS011;6587;42.728;23.288;2023-04-10T02:29:15;16.77;;;10.30;;
13040;SDS011;6587;42.728;23.288;2023-04-10T02:31:42;13.87;;;9.40;;
13040;SDS011;6587;42.728;23.288;2023-04-10T02:34:11;13.03;;;8.80;;
13040;SDS011;6587;42.728;23.288;2023-04-10T02:36:37;13.03;;;8.03;;
13040;SDS011;6587;42.728;23.288;2023-04-10T02:39:06;14.20;;;8.43;;
13040;SDS011;6587;42.728;23.288;2023-04-10T02:41:39;14.40;;;11.60;;
13040;SDS011;6587;42.728;23.288;2023-04-10T02:44:06;13.77;;;10.37;;
13040;SDS011;6587;42.728;23.288;2023-04-10T02:46:33;14.77;;;9.40;;
13040;SDS011;6587;42.728;23.288;2023-04-10T02:49:00;14.43;;;9.20;;
13040;SDS011;6587;42.728;23.288;2023-04-10T02:51:32;12.73;;;8.37;;
13040;SDS011;6587;42.728;23.288;2023-04-10T02:53:59;15.10;;;9.93;;
13040;SDS011;6587;42.728;23.288;2023-04-10T02:56:29;14.23;;;9.50;;
13040;SDS011;6587;42.728;23.288;2023-04-10T02:58:56;17.10;;;9.70;;
13040;SDS011;6587;42.728;23.288;2023-04-10T03:01:23;14.27;;;9.53;;
13040;SDS011;6587;42.728;23.288;2023-04-10T03:03:50;15.53;;;9.37;;
13040;SDS011;6587;42.728;23.288;2023-04-10T03:06:25;14.37;;;9.27;;
13040;SDS011;6587;42.728;23.288;2023-04-10T03:08:56;15.90;;;9.73;;
13040;SDS011;6587;42.728;23.288;2023-04-10T03:11:23;16.13;;;9.83;;
13040;SDS011;6587;42.728;23.288;2023-04-10T03:13:50;17.13;;;9.70;;
13040;SDS011;6587;42.728;23.288;2023-04-10T03:16:18;19.30;;;10.80;;
13040;SDS011;6587;42.728;23.288;2023-04-10T03:18:45;18.20;;;10.17;;
13040;SDS011;6587;42.728;23.288;2023-04-10T03:21:12;15.40;;;10.60;;
13040;SDS011;6587;42.728;23.288;2023-04-10T03:23:40;17.17;;;10.43;;
13040;SDS011;6587;42.728;23.288;2023-04-10T03:26:08;14.23;;;9.67;;
13040;SDS011;6587;42.728;23.288;2023-04-10T03:28:36;14.73;;;9.60;;
13040;SDS011;6587;42.728;23.288;2023-04-10T03:31:04;15.43;;;10.37;;
13040;SDS011;6587;42.728;23.288;2023-04-10T03:33:33;17.30;;;10.37;;
13040;SDS011;6587;42.728;23.288;2023-04-10T03:36:00;15.13;;;9.30;;
13040;SDS011;6587;42.728;23.288;2023-04-10T03:38:27;17.07;;;9.43;;
13040;SDS011;6587;42.728;23.288;2023-04-10T03:40:54;14.90;;;9.50;;
13040;SDS011;6587;42.728;23.288;2023-04-10T03:43:24;15.40;;;9.67;;
13040;SDS011;6587;42.728;23.288;2023-04-10T03:45:51;15.40;;;9.53;;
13040;SDS011;6587;42.728;23.288;2023-04-10T03:48:19;15.17;;;9.33;;
13040;SDS011;6587;42.728;23.288;2023-04-10T03:50:46;15.70;;;9.90;;
13040;SDS011;6587;42.728;23.288;2023-04-10T03:53:13;15.53;;;9.53;;
13040;SDS011;6587;42.728;23.288;2023-04-10T03:55:41;14.03;;;8.80;;
13040;SDS011;6587;42.728;23.288;2023-04-10T03:58:08;14.07;;;9.13;;
13040;SDS011;6587;42.728;23.288;2023-04-10T04:00:37;16.03;;;9.93;;
13040;SDS011;6587;42.728;23.288;2023-04-10T04:03:14;17.63;;;10.90;;
13040;SDS011;6587;42.728;23.288;2023-04-10T04:06:01;17.97;;;10.73;;
13040;SDS011;6587;42.728;23.288;2023-04-10T04:08:32;17.27;;;11.03;;
13040;SDS011;6587;42.728;23.288;2023-04-10T04:11:10;19.27;;;10.77;;
13040;SDS011;6587;42.728;23.288;2023-04-10T04:14:03;17.03;;;10.67;;
13040;SDS011;6587;42.728;23.288;2023-04-10T04:16:49;17.83;;;10.47;;
13040;SDS011;6587;42.728;23.288;2023-04-10T04:19:51;16.33;;;10.07;;
13040;SDS011;6587;42.728;23.288;2023-04-10T04:22:44;17.77;;;10.43;;
13040;SDS011;6587;42.728;23.288;2023-04-10T04:25:42;17.37;;;10.60;;
13040;SDS011;6587;42.728;23.288;2023-04-10T04:28:27;16.63;;;10.53;;
13040;SDS011;6587;42.728;23.288;2023-04-10T04:31:14;18.20;;;10.97;;
13040;SDS011;6587;42.728;23.288;2023-04-10T04:33:49;17.97;;;10.97;;
13040;SDS011;6587;42.728;23.288;2023-04-10T04:36:38;19.23;;;11.87;;
13040;SDS011;6587;42.728;23.288;2023-04-10T04:39:25;17.90;;;11.27;;
13040;SDS011;6587;42.728;23.288;2023-04-10T04:42:10;19.20;;;11.83;;
13040;SDS011;6587;42.728;23.288;2023-04-10T04:44:59;18.20;;;11.43;;
13040;SDS011;6587;42.728;23.288;2023-04-10T04:47:41;21.50;;;12.37;;
13040;SDS011;6587;42.728;23.288;2023-04-10T04:50:28;19.77;;;12.40;;
13040;SDS011;6587;42.728;23.288;2023-04-10T04:53:32;18.33;;;12.27;;
13040;SDS011;6587;42.728;23.288;2023-04-10T04:56:11;32.10;;;20.80;;
13040;SDS011;6587;42.728;23.288;2023-04-10T04:59:01;33.30;;;20.50;;
13040;SDS011;6587;42.728;23.288;2023-04-10T05:01:48;32.50;;;20.43;;
13040;SDS011;6587;42.728;23.288;2023-04-10T05:04:30;32.23;;;20.47;;
13040;SDS011;6587;42.728;23.288;2023-04-10T05:07:08;37.63;;;21.53;;
13040;SDS011;6587;42.728;23.288;2023-04-10T05:09:55;33.67;;;20.97;;
13040;SDS011;6587;42.728;23.288;2023-04-10T05:12:40;33.27;;;19.87;;
13040;SDS011;6587;42.728;23.288;2023-04-10T05:15:36;34.43;;;19.97;;
13040;SDS011;6587;42.728;23.288;2023-04-10T05:18:33;34.20;;;18.80;;
13040;SDS011;6587;42.728;23.288;2023-04-10T05:21:19;24.67;;;15.30;;
13040;SDS011;6587;42.728;23.288;2023-04-10T05:24:07;35.83;;;23.00;;
13040;SDS011;6587;42.728;23.288;2023-04-10T05:26:52;32.63;;;20.00;;
13040;SDS011;6587;42.728;23.288;2023-04-10T05:29:28;29.90;;;17.77;;
13040;SDS011;6587;42.728;23.288;2023-04-10T05:32:13;33.43;;;20.00;;
13040;SDS011;6587;42.728;23.288;2023-04-10T05:34:59;32.10;;;20.03;;
13040;SDS011;6587;42.728;23.288;2023-04-10T05:37:37;31.50;;;20.17;;
13040;SDS011;6587;42.728;23.288;2023-04-10T05:40:26;40.30;;;24.60;;
13040;SDS011;6587;42.728;23.288;2023-04-10T05:43:19;43.40;;;29.03;;
13040;SDS011;6587;42.728;23.288;2023-04-10T05:46:15;45.97;;;30.33;;
13040;SDS011;6587;42.728;23.288;2023-04-10T05:48:42;45.03;;;29.90;;
13040;SDS011;6587;42.728;23.288;2023-04-10T05:51:34;43.47;;;28.47;;
13040;SDS011;6587;42.728;23.288;2023-04-10T05:54:24;45.87;;;29.47;;
13040;SDS011;6587;42.728;23.288;2023-04-10T05:57:08;45.87;;;29.37;;
13040;SDS011;6587;42.728;23.288;2023-04-10T05:59:59;55.30;;;33.47;;
13040;SDS011;6587;42.728;23.288;2023-04-10T06:03:01;52.57;;;32.83;;
13040;SDS011;6587;42.728;23.288;2023-04-10T06:05:29;49.17;;;29.57;;
13040;SDS011;6587;42.728;23.288;2023-04-10T06:08:00;42.10;;;27.20;;
13040;SDS011;6587;42.728;23.288;2023-04-10T06:10:28;44.63;;;27.23;;
13040;SDS011;6587;42.728;23.288;2023-04-10T06:12:56;40.37;;;25.23;;
13040;SDS011;6587;42.728;23.288;2023-04-10T06:15:24;45.27;;;27.07;;
13040;SDS011;6587;42.728;23.288;2023-04-10T06:17:51;33.07;;;20.80;;
13040;SDS011;6587;42.728;23.288;2023-04-10T06:20:18;29.87;;;20.07;;
13040;SDS011;6587;42.728;23.288;2023-04-10T06:22:45;25.57;;;15.43;;
13040;SDS011;6587;42.728;23.288;2023-04-10T06:25:11;21.60;;;14.00;;
13040;SDS011;6587;42.728;23.288;2023-04-10T06:27:38;19.73;;;13.83;;
13040;SDS011;6587;42.728;23.288;2023-04-10T06:30:09;23.63;;;14.23;;
13040;SDS011;6587;42.728;23.288;2023-04-10T06:32:36;21.67;;;13.73;;
13040;SDS011;6587;42.728;23.288;2023-04-10T06:35:04;19.93;;;13.67;;
13040;SDS011;6587;42.728;23.288;2023-04-10T06:37:31;20.67;;;13.70;;
13040;SDS011;6587;42.728;23.288;2023-04-10T06:40:01;23.40;;;13.90;;
13040;SDS011;6587;42.728;23.288;2023-04-10T06:42:28;22.47;;;14.13;;
13040;SDS011;6587;42.728;23.288;2023-04-10T06:44:59;19.17;;;13.47;;
13040;SDS011;6587;42.728;23.288;2023-04-10T06:47:29;25.10;;;14.77;;
13040;SDS011;6587;42.728;23.288;2023-04-10T06:49:57;24.33;;;14.30;;
13040;SDS011;6587;42.728;23.288;2023-04-10T06:52:24;23.13;;;14.37;;
13040;SDS011;6587;42.728;23.288;2023-04-10T06:54:51;24.17;;;14.13;;
13040;SDS011;6587;42.728;23.288;2023-04-10T06:57:18;22.47;;;14.00;;
13040;SDS011;6587;42.728;23.288;2023-04-10T06:59:44;20.97;;;14.33;;
13040;SDS011;6587;42.728;23.288;2023-04-10T07:02:11;22.70;;;15.30;;
13040;SDS011;6587;42.728;23.288;2023-04-10T07:04:39;24.33;;;15.40;;
13040;SDS011;6587;42.728;23.288;2023-04-10T07:07:06;27.23;;;16.07;;
13040;SDS011;6587;42.728;23.288;2023-04-10T07:09:34;24.33;;;14.30;;
13040;SDS011;6587;42.728;23.288;2023-04-10T07:12:00;27.53;;;15.70;;
13040;SDS011;6587;42.728;23.288;2023-04-10T07:14:27;23.37;;;14.27;;
13040;SDS011;6587;42.728;23.288;2023-04-10T07:16:54;22.00;;;14.17;;
13040;SDS011;6587;42.728;23.288;2023-04-10T07:19:20;23.47;;;14.30;;
13040;SDS011;6587;42.728;23.288;2023-04-10T07:21:48;25.93;;;14.77;;
13040;SDS011;6587;42.728;23.288;2023-04-10T07:24:15;24.53;;;14.37;;
13040;SDS011;6587;42.728;23.288;2023-04-10T07:26:42;24.83;;;14.87;;
13040;SDS011;6587;42.728;23.288;2023-04-10T07:29:08;21.30;;;14.50;;
13040;SDS011;6587;42.728;23.288;2023-04-10T07:31:35;24.67;;;15.73;;
13040;SDS011;6587;42.728;23.288;2023-04-10T07:34:02;21.83;;;14.57;;
13040;SDS011;6587;42.728;23.288;2023-04-10T07:36:28;21.17;;;13.83;;
13040;SDS011;6587;42.728;23.288;2023-04-10T07:38:57;24.67;;;15.33;;
13040;SDS011;6587;42.728;23.288;2023-04-10T07:41:24;23.17;;;15.10;;
13040;SDS011;6587;42.728;23.288;2023-04-10T07:43:50;22.87;;;14.93;;
13040;SDS011;6587;42.728;23.288;2023-04-10T07:46:17;25.60;;;14.90;;
13040;SDS011;6587;42.728;23.288;2023-04-10T07:48:43;24.27;;;15.23;;
13040;SDS011;6587;42.728;23.288;2023-04-10T07:51:11;27.33;;;15.83;;
13040;SDS011;6587;42.728;23.288;2023-04-10T07:53:37;25.23;;;14.97;;
13040;SDS011;6587;42.728;23.288;2023-04-10T07:56:06;23.90;;;15.13;;
13040;SDS011;6587;42.728;23.288;2023-04-10T07:58:35;22.20;;;14.37;;
13040;SDS011;6587;42.728;23.288;2023-04-10T08:01:01;18.20;;;12.03;;
13040;SDS011;6587;42.728;23.288;2023-04-10T08:03:28;20.37;;;12.83;;
13040;SDS011;6587;42.728;23.288;2023-04-10T08:05:55;21.47;;;13.80;;
13040;SDS011;6587;42.728;23.288;2023-04-10T08:08:21;22.20;;;14.43;;
13040;SDS011;6587;42.728;23.288;2023-04-10T08:10:48;23.03;;;14.40;;
13040;SDS011;6587;42.728;23.288;2023-04-10T08:13:16;22.13;;;12.87;;
13040;SDS011;6587;42.728;23.288;2023-04-10T08:15:42;20.50;;;10.93;;
13040;SDS011;6587;42.728;23.288;2023-04-10T08:18:09;13.43;;;10.07;;
13040;SDS011;6587;42.728;23.288;2023-04-10T08:20:36;14.47;;;10.43;;
13040;SDS011;6587;42.728;23.288;2023-04-10T08:23:03;17.73;;;11.13;;
13040;SDS011;6587;42.728;23.288;2023-04-10T08:25:30;17.73;;;11.33;;
13040;SDS011;6587;42.728;23.288;2023-04-10T08:27:57;19.03;;;10.63;;
13040;SDS011;6587;42.728;23.288;2023-04-10T08:30:26;15.00;;;10.63;;
13040;SDS011;6587;42.728;23.288;2023-04-10T08:32:52;17.77;;;11.40;;
13040;SDS011;6587;42.728;23.288;2023-04-10T08:35:19;13.70;;;9.10;;
13040;SDS011;6587;42.728;23.288;2023-04-10T08:37:45;16.53;;;10.00;;
13040;SDS011;6587;42.728;23.288;2023-04-10T08:40:12;20.60;;;10.80;;
13040;SDS011;6587;42.728;23.288;2023-04-10T08:42:39;12.53;;;9.13;;
13040;SDS011;6587;42.728;23.288;2023-04-10T08:45:07;14.27;;;9.53;;
13040;SDS011;6587;42.728;23.288;2023-04-10T08:47:35;12.27;;;8.57;;
13040;SDS011;6587;42.728;23.288;2023-04-10T08:50:04;14.07;;;9.03;;
13040;SDS011;6587;42.728;23.288;2023-04-10T08:52:31;15.57;;;9.50;;
13040;SDS011;6587;42.728;23.288;2023-04-10T08:55:01;13.93;;;9.00;;
13040;SDS011;6587;42.728;23.288;2023-04-10T08:57:30;14.40;;;9.07;;
13040;SDS011;6587;42.728;23.288;2023-04-10T08:59:58;13.63;;;9.13;;
13040;SDS011;6587;42.728;23.288;2023-04-10T09:02:26;13.33;;;9.13;;
13040;SDS011;6587;42.728;23.288;2023-04-10T09:04:54;14.47;;;9.60;;
13040;SDS011;6587;42.728;23.288;2023-04-10T09:07:25;17.93;;;10.37;;
13040;SDS011;6587;42.728;23.288;2023-04-10T09:09:52;15.23;;;10.23;;
13040;SDS011;6587;42.728;23.288;2023-04-10T09:12:18;18.70;;;9.70;;
13040;SDS011;6587;42.728;23.288;2023-04-10T09:14:45;17.60;;;9.70;;
13040;SDS011;6587;42.728;23.288;2023-04-10T09:17:15;16.77;;;9.90;;
13040;SDS011;6587;42.728;23.288;2023-04-10T09:19:42;13.73;;;9.17;;
13040;SDS011;6587;42.728;23.288;2023-04-10T09:22:10;15.80;;;10.13;;
13040;SDS011;6587;42.728;23.288;2023-04-10T09:24:37;13.50;;;9.47;;
13040;SDS011;6587;42.728;23.288;2023-04-10T09:27:04;15.40;;;9.97;;
13040;SDS011;6587;42.728;23.288;2023-04-10T09:29:38;15.23;;;10.10;;
13040;SDS011;6587;42.728;23.288;2023-04-10T09:32:05;14.17;;;8.87;;
13040;SDS011;6587;42.728;23.288;2023-04-10T09:34:31;15.77;;;9.77;;
13040;SDS011;6587;42.728;23.288;2023-04-10T09:36:58;13.00;;;9.53;;
13040;SDS011;6587;42.728;23.288;2023-04-10T09:39:33;15.87;;;10.07;;
13040;SDS011;6587;42.728;23.288;2023-04-10T09:42:00;14.73;;;10.57;;
13040;SDS011;6587;42.728;23.288;2023-04-10T09:44:27;15.73;;;9.60;;
13040;SDS011;6587;42.728;23.288;2023-04-10T09:46:55;14.73;;;9.97;;
13040;SDS011;6587;42.728;23.288;2023-04-10T09:49:21;15.33;;;9.40;;
13040;SDS011;6587;42.728;23.288;2023-04-10T09:51:48;16.10;;;10.40;;
13040;SDS011;6587;42.728;23.288;2023-04-10T09:54:15;17.13;;;11.10;;
13040;SDS011;6587;42.728;23.288;2023-04-10T09:56:43;27.07;;;17.20;;
13040;SDS011;6587;42.728;23.288;2023-04-10T09:59:11;17.77;;;9.73;;
13040;SDS011;6587;42.728;23.288;2023-04-10T10:01:39;13.27;;;9.70;;
13040;SDS011;6587;42.728;23.288;2023-04-10T10:04:06;15.63;;;10.30;;
13040;SDS011;6587;42.728;23.288;2023-04-10T10:06:33;18.00;;;10.47;;
13040;SDS011;6587;42.728;23.288;2023-04-10T10:09:00;14.83;;;8.63;;
13040;SDS011;6587;42.728;23.288;2023-04-10T10:11:28;14.40;;;9.70;;
13040;SDS011;6587;42.728;23.288;2023-04-10T10:13:57;12.97;;;9.83;;
13040;SDS011;6587;42.728;23.288;2023-04-10T10:16:26;13.33;;;9.17;;
13040;SDS011;6587;42.728;23.288;2023-04-10T10:18:55;13.50;;;9.50;;
13040;SDS011;6587;42.728;23.288;2023-04-10T10:21:24;17.23;;;10.27;;
13040;SDS011;6587;42.728;23.288;2023-04-10T10:23:52;16.87;;;10.63;;
13040;SDS011;6587;42.728;23.288;2023-04-10T10:26:20;58.07;;;38.33;;
13040;SDS011;6587;42.728;23.288;2023-04-10T10:28:48;27.37;;;19.97;;
13040;SDS011;6587;42.728;23.288;2023-04-10T10:31:17;17.60;;;10.63;;
13040;SDS011;6587;42.728;23.288;2023-04-10T10:33:45;13.93;;;9.73;;
13040;SDS011;6587;42.728;23.288;2023-04-10T10:36:12;15.50;;;9.97;;
13040;SDS011;6587;42.728;23.288;2023-04-10T10:38:43;14.37;;;9.80;;
13040;SDS011;6587;42.728;23.288;2023-04-10T10:41:14;11.90;;;8.40;;
13040;SDS011;6587;42.728;23.288;2023-04-10T10:43:45;12.37;;;8.83;;
13040;SDS011;6587;42.728;23.288;2023-04-10T10:46:16;12.60;;;9.20;;
13040;SDS011;6587;42.728;23.288;2023-04-10T10:48:55;15.00;;;9.73;;
13040;SDS011;6587;42.728;23.288;2023-04-10T10:51:22;13.37;;;8.67;;
13040;SDS011;6587;42.728;23.288;2023-04-10T10:53:49;16.27;;;8.80;;
13040;SDS011;6587;42.728;23.288;2023-04-10T10:59:09;11.20;;;8.17;;
13040;SDS011;6587;42.728;23.288;2023-04-10T11:01:36;9.33;;;7.70;;
13040;SDS011;6587;42.728;23.288;2023-04-10T11:06:50;9.83;;;7.93;;
13040;SDS011;6587;42.728;23.288;2023-04-10T11:12:02;17.93;;;9.50;;
13040;SDS011;6587;42.728;23.288;2023-04-10T11:14:31;11.50;;;8.63;;
13040;SDS011;6587;42.728;23.288;2023-04-10T11:16:58;12.43;;;8.90;;
13040;SDS011;6587;42.728;23.288;2023-04-10T11:19:25;13.70;;;9.77;;
13040;SDS011;6587;42.728;23.288;2023-04-10T11:22:00;12.43;;;9.07;;
13040;SDS011;6587;42.728;23.288;2023-04-10T11:24:27;9.63;;;7.83;;
13040;SDS011;6587;42.728;23.288;2023-04-10T11:26:54;9.63;;;7.63;;
13040;SDS011;6587;42.728;23.288;2023-04-10T11:29:34;12.40;;;8.67;;
13040;SDS011;6587;42.728;23.288;2023-04-10T11:32:01;11.40;;;8.50;;
13040;SDS011;6587;42.728;23.288;2023-04-10T11:34:28;10.37;;;7.87;;
13040;SDS011;6587;42.728;23.288;2023-04-10T11:36:57;10.43;;;7.83;;
13040;SDS011;6587;42.728;23.288;2023-04-10T11:39:26;9.23;;;7.33;;
13040;SDS011;6587;42.728;23.288;2023-04-10T11:41:53;12.90;;;8.23;;
13040;SDS011;6587;42.728;23.288;2023-04-10T11:44:28;96.63;;;70.50;;
13040;SDS011;6587;42.728;23.288;2023-04-10T11:46:55;11.17;;;8.80;;
13040;SDS011;6587;42.728;23.288;2023-04-10T11:49:23;11.10;;;8.43;;
13040;SDS011;6587;42.728;23.288;2023-04-10T11:51:50;12.20;;;8.93;;
13040;SDS011;6587;42.728;23.288;2023-04-10T11:54:18;10.00;;;8.33;;
13040;SDS011;6587;42.728;23.288;2023-04-10T11:56:54;12.87;;;9.47;;
13040;SDS011;6587;42.728;23.288;2023-04-10T11:59:22;14.43;;;9.20;;
13040;SDS011;6587;42.728;23.288;2023-04-10T12:01:49;13.73;;;9.47;;
13040;SDS011;6587;42.728;23.288;2023-04-10T12:04:19;10.63;;;8.77;;
13040;SDS011;6587;42.728;23.288;2023-04-10T12:06:46;10.97;;;8.43;;
13040;SDS011;6587;42.728;23.288;2023-04-10T12:09:13;12.93;;;9.47;;
13040;SDS011;6587;42.728;23.288;2023-04-10T12:11:48;12.20;;;8.70;;
13040;SDS011;6587;42.728;23.288;2023-04-10T12:14:16;10.87;;;8.57;;
13040;SDS011;6587;42.728;23.288;2023-04-10T12:16:42;10.80;;;8.87;;
13040;SDS011;6587;42.728;23.288;2023-04-10T12:19:10;11.03;;;9.37;;
13040;SDS011;6587;42.728;23.288;2023-04-10T12:21:37;12.23;;;9.70;;
13040;SDS011;6587;42.728;23.288;2023-04-10T12:24:04;15.40;;;10.20;;
13040;SDS011;6587;42.728;23.288;2023-04-10T12:26:31;13.13;;;10.10;;
13040;SDS011;6587;42.728;23.288;2023-04-10T12:28:59;12.47;;;10.10;;
13040;SDS011;6587;42.728;23.288;2023-04-10T12:31:26;13.87;;;9.87;;
13040;SDS011;6587;42.728;23.288;2023-04-10T12:33:53;15.27;;;10.13;;
13040;SDS011;6587;42.728;23.288;2023-04-10T12:36:22;16.27;;;11.57;;
13040;SDS011;6587;42.728;23.288;2023-04-10T12:38:50;13.60;;;9.93;;
13040;SDS011;6587;42.728;23.288;2023-04-10T12:41:21;8.00;;;6.43;;
13040;SDS011;6587;42.728;23.288;2023-04-10T12:43:48;12.17;;;7.27;;
13040;SDS011;6587;42.728;23.288;2023-04-10T12:46:23;11.97;;;7.13;;
13040;SDS011;6587;42.728;23.288;2023-04-10T12:48:50;11.77;;;8.10;;
13040;SDS011;6587;42.728;23.288;2023-04-10T12:51:16;10.77;;;7.57;;
13040;SDS011;6587;42.728;23.288;2023-04-10T12:53:43;12.37;;;7.93;;
13040;SDS011;6587;42.728;23.288;2023-04-10T12:56:10;14.10;;;7.97;;
13040;SDS011;6587;42.728;23.288;2023-04-10T12:58:37;12.60;;;8.27;;
13040;SDS011;6587;42.728;23.288;2023-04-10T13:01:07;12.50;;;9.07;;
13040;SDS011;6587;42.728;23.288;2023-04-10T13:03:36;14.00;;;9.20;;
13040;SDS011;6587;42.728;23.288;2023-04-10T13:06:04;14.23;;;9.30;;
13040;SDS011;6587;42.728;23.288;2023-04-10T13:08:31;14.00;;;10.50;;
13040;SDS011;6587;42.728;23.288;2023-04-10T13:10:57;13.50;;;10.37;;
13040;SDS011;6587;42.728;23.288;2023-04-10T13:13:27;16.47;;;10.80;;
13040;SDS011;6587;42.728;23.288;2023-04-10T13:15:53;15.90;;;11.33;;
13040;SDS011;6587;42.728;23.288;2023-04-10T13:18:20;15.13;;;10.50;;
13040;SDS011;6587;42.728;23.288;2023-04-10T13:20:48;14.83;;;10.63;;
13040;SDS011;6587;42.728;23.288;2023-04-10T13:23:15;15.27;;;11.00;;
13040;SDS011;6587;42.728;23.288;2023-04-10T13:25:42;15.73;;;10.50;;
13040;SDS011;6587;42.728;23.288;2023-04-10T13:28:08;15.80;;;10.80;;
13040;SDS011;6587;42.728;23.288;2023-04-10T13:30:35;13.13;;;10.00;;
13040;SDS011;6587;42.728;23.288;2023-04-10T13:33:02;11.70;;;9.00;;
13040;SDS011;6587;42.728;23.288;2023-04-10T13:35:29;13.67;;;9.77;;
13040;SDS011;6587;42.728;23.288;2023-04-10T13:37:57;10.80;;;8.93;;
13040;SDS011;6587;42.728;23.288;2023-04-10T13:40:24;13.53;;;9.47;;
13040;SDS011;6587;42.728;23.288;2023-04-10T13:42:50;10.13;;;8.30;;
13040;SDS011;6587;42.728;23.288;2023-04-10T13:45:17;10.90;;;8.17;;
13040;SDS011;6587;42.728;23.288;2023-04-10T13:47:43;11.23;;;8.80;;
13040;SDS011;6587;42.728;23.288;2023-04-10T13:50:10;9.90;;;8.07;;
13040;SDS011;6587;42.728;23.288;2023-04-10T13:52:37;10.87;;;8.67;;
13040;SDS011;6587;42.728;23.288;2023-04-10T13:55:05;9.77;;;7.67;;
13040;SDS011;6587;42.728;23.288;2023-04-10T13:57:32;9.47;;;7.60;;
13040;SDS011;6587;42.728;23.288;2023-04-10T13:59:59;9.17;;;7.53;;
13040;SDS011;6587;42.728;23.288;2023-04-10T14:02:25;9.20;;;7.97;;
13040;SDS011;6587;42.728;23.288;2023-04-10T14:04:52;10.37;;;8.03;;
13040;SDS011;6587;42.728;23.288;2023-04-10T14:07:19;13.57;;;7.40;;
13040;SDS011;6587;42.728;23.288;2023-04-10T14:09:45;7.97;;;7.07;;
13040;SDS011;6587;42.728;23.288;2023-04-10T14:12:14;10.33;;;6.50;;
13040;SDS011;6587;42.728;23.288;2023-04-10T14:14:41;6.17;;;5.27;;
13040;SDS011;6587;42.728;23.288;2023-04-10T14:17:08;5.10;;;4.60;;
13040;SDS011;6587;42.728;23.288;2023-04-10T14:19:35;6.40;;;4.70;;
13040;SDS011;6587;42.728;23.288;2023-04-10T14:22:02;6.27;;;4.97;;
13040;SDS011;6587;42.728;23.288;2023-04-10T14:24:29;7.47;;;5.30;;
13040;SDS011;6587;42.728;23.288;2023-04-10T14:26:55;5.23;;;4.73;;
13040;SDS011;6587;42.728;23.288;2023-04-10T14:29:26;7.43;;;4.97;;
13040;SDS011;6587;42.728;23.288;2023-04-10T14:31:52;7.07;;;5.80;;
13040;SDS011;6587;42.728;23.288;2023-04-10T14:34:19;7.83;;;6.20;;
13040;SDS011;6587;42.728;23.288;2023-04-10T14:36:46;8.47;;;7.20;;
13040;SDS011;6587;42.728;23.288;2023-04-10T14:39:12;9.03;;;7.40;;
13040;SDS011;6587;42.728;23.288;2023-04-10T14:41:39;9.40;;;7.10;;
13040;SDS011;6587;42.728;23.288;2023-04-10T14:44:06;12.17;;;7.90;;
13040;SDS011;6587;42.728;23.288;2023-04-10T14:46:34;9.97;;;7.80;;
13040;SDS011;6587;42.728;23.288;2023-04-10T14:49:01;9.67;;;7.70;;
13040;SDS011;6587;42.728;23.288;2023-04-10T14:51:28;11.00;;;8.10;;
13040;SDS011;6587;42.728;23.288;2023-04-10T14:53:54;10.43;;;7.87;;
13040;SDS011;6587;42.728;23.288;2023-04-10T14:56:21;11.50;;;7.83;;